PAKT

Ketchikan International Airport

Ketchikan, Alaska, USA
PAKT 190536Z 1906/2006 13008KT P6SM VCSH SCT025 OVC060 FM190800 13010KT 6SM -RA BR BKN025 OVC050 WS020/14030KT FM191000 14010G20KT P6SM -RA BKN015 OVC025 WS020/15035KT FM191500 14020G35KT 3SM +RA BR OVC015 WS020/15055KT FM192100 14015KT 5SM -RA BR SCT015 OVC025 FM200200 14011KT P6SM -RA SCT015 OVC025 AMD LTD TO CLD VIS AND WIND 1906/1915
Issued Valid From Valid To
Oct-19 @ 05:36 UTC
(3 hours ago)
Oct-19 @ 06:00 UTC
(3 hours ago)
Oct-20 @ 06:00 UTC
(in 21 hours)
Expired Click to View Oct-19 @ 06:00 to Oct-19 @ 08:00
PAKT 190536Z 1906/2006 13008KT P6SM VCSH SCT025 OVC060
Wind Visibility Clouds
130° at 8 knots Greater than 6 miles
  • Scattered at 2,500' AGL
  • Overcast at 6,000' AGL
From Oct-19 @ 08:00 to Oct-19 @ 10:00
FM190800 13010KT 6SM -RA BR BKN025 OVC050 WS020/14030KT
Wind Visibility Clouds Conditions
130° at 10 knots
 Wind shear 2,000' AGL from 140° at 30 knots
6 miles
  • Broken at 2,500' AGL
  • Overcast at 5,000' AGL
  • Light Rain
  • Mist
From Oct-19 @ 10:00 to Oct-19 @ 15:00
FM191000 14010G20KT P6SM -RA BKN015 OVC025 WS020/15035KT
Wind Visibility Clouds Conditions
140° at 10 knots
 Gusting to 20 knots
 Wind shear 2,000' AGL from 150° at 35 knots
Greater than 6 miles
  • Broken at 1,500' AGL
  • Overcast at 2,500' AGL
  • Light Rain
From Oct-19 @ 15:00 to Oct-19 @ 21:00
FM191500 14020G35KT 3SM +RA BR OVC015 WS020/15055KT
Wind Visibility Clouds Conditions
140° at 20 knots
 Gusting to 35 knots
 Wind shear 2,000' AGL from 150° at 55 knots
3 miles
  • Overcast at 1,500' AGL
  • Heavy Rain
  • Mist
From Oct-19 @ 21:00 to Oct-20 @ 02:00
FM192100 14015KT 5SM -RA BR SCT015 OVC025
Wind Visibility Clouds Conditions
140° at 15 knots 5 miles
  • Scattered at 1,500' AGL
  • Overcast at 2,500' AGL
  • Light Rain
  • Mist
From Oct-20 @ 02:00 to Oct-20 @ 06:00
FM200200 14011KT P6SM -RA SCT015 OVC025 AMD LTD TO CLD VIS AND WIND 1906/1915
Wind Visibility Clouds Conditions
140° at 11 knots Greater than 6 miles
  • Scattered at 1,500' AGL
  • Overcast at 2,500' AGL
  • Light Rain
PAKT 190536Z 1906/2006 13008KT P6SM VCSH SCT025 OVC060 FM190800 13010KT 6SM -RA BR BKN025 OVC050 WS020/14030KT FM191000 14010G20KT P6SM -RA BKN015 OVC025 WS020/15035KT FM191500 14020G35KT 3SM +RA BR OVC015 WS020/15055KT FM192100 14015KT 5SM -RA BR SCT015 OVC025 FM200200 14011KT P6SM -RA SCT015 OVC025 AMD LTD TO CLD VIS AND WIND 1906/1915
Issued Oct-19 @ 05:36 UTC
(3 hours ago)
Valid From Oct-19 @ 06:00 UTC
(3 hours ago)
Valid To Oct-20 @ 06:00 UTC
(in 21 hours)
Oct-19 @ 06:00 - Oct-19 @ 08:00
Wind Visibility
130° at 8 knots Greater than 6 miles
Clouds
  • Scattered at 2,500' AGL
  • Overcast at 6,000' AGL
From Oct-19 @ 08:00 - Oct-19 @ 10:00
Wind Visibility
130° at 10 knots 6 miles
Clouds
  • Broken at 2,500' AGL
  • Overcast at 5,000' AGL
Conditions
  • Light Rain
  • Mist
From Oct-19 @ 10:00 - Oct-19 @ 15:00
Wind Visibility
140° at 10 knots
 Gusting to 20 knots
Greater than 6 miles
Clouds
  • Broken at 1,500' AGL
  • Overcast at 2,500' AGL
Conditions
  • Light Rain
From Oct-19 @ 15:00 - Oct-19 @ 21:00
Wind Visibility
140° at 20 knots
 Gusting to 35 knots
3 miles
Clouds
  • Overcast at 1,500' AGL
Conditions
  • Heavy Rain
  • Mist
From Oct-19 @ 21:00 - Oct-20 @ 02:00
Wind Visibility
140° at 15 knots 5 miles
Clouds
  • Scattered at 1,500' AGL
  • Overcast at 2,500' AGL
Conditions
  • Light Rain
  • Mist
From Oct-20 @ 02:00 - Oct-20 @ 06:00
Wind Visibility
140° at 11 knots Greater than 6 miles
Clouds
  • Scattered at 1,500' AGL
  • Overcast at 2,500' AGL
Conditions
  • Light Rain